Time;durP1;ratioP1;P1;durP2;ratioP2;P2;SDS_P1;SDS_P2;PMS_P1;PMS_P2;Temp;Humidity;BMP_temperature;BMP_pressure;BME280_temperature;BME280_humidity;BME280_pressure;Samples;Min_cycle;Max_cycle;Signal;HPM_P1;HPM_P2
2023/02/27 00:01:09;;;;;;;13.50;2.90;;;;;;;3.79;100.00;99335.03;67601;1281;1017701;-59
2023/02/27 00:04:13;;;;;;;15.50;3.50;;;;;;;3.85;100.00;99333.66;67600;1281;1016270;-59
2023/02/27 00:07:16;;;;;;;17.90;3.20;;;;;;;3.95;100.00;99330.31;67612;1281;1016576;-59
2023/02/27 00:10:18;;;;;;;;;;;;;;;3.90;100.00;99331.11;67564;1281;1016137;-59
2023/02/27 00:13:21;;;;;;;11.80;2.40;;;;;;;3.94;100.00;99328.23;67553;1281;1015798;-59
2023/02/27 00:16:23;;;;;;;11.60;2.50;;;;;;;3.94;100.00;99332.07;67583;1282;1016330;-60
2023/02/27 00:19:26;;;;;;;13.40;2.40;;;;;;;4.02;100.00;99328.73;67581;1282;1016361;-59
2023/02/27 00:22:28;;;;;;;11.90;2.40;;;;;;;4.12;100.00;99329.17;67597;1282;1016566;-59
2023/02/27 00:25:31;;;;;;;13.10;2.80;;;;;;;4.06;100.00;99331.94;67551;1282;1016456;-59
2023/02/27 00:28:33;;;;;;;12.20;2.70;;;;;;;3.87;100.00;99340.20;67553;1282;1016287;-59
2023/02/27 00:31:35;;;;;;;15.10;2.80;;;;;;;3.80;100.00;99343.14;67595;1282;1016447;-60
2023/02/27 00:34:38;;;;;;;14.80;2.40;;;;;;;3.82;100.00;99343.10;67602;1281;1016391;-59
2023/02/27 00:37:41;;;;;;;12.20;2.50;;;;;;;3.92;100.00;99346.29;67539;1282;1016471;-59
2023/02/27 00:40:43;;;;;;;14.10;3.00;;;;;;;3.99;100.00;99341.10;67519;1282;1016479;-59
2023/02/27 00:43:45;;;;;;;16.30;3.30;;;;;;;3.91;100.00;99343.23;67587;1282;1018954;-60
2023/02/27 00:46:48;;;;;;;13.40;3.00;;;;;;;4.03;100.00;99339.08;67575;1282;1016441;-59
2023/02/27 00:49:50;;;;;;;15.40;3.10;;;;;;;4.10;100.00;99338.73;67584;1282;1016223;-60
2023/02/27 00:52:53;;;;;;;16.60;3.00;;;;;;;3.99;100.00;99342.84;67558;1282;1016462;-59
2023/02/27 00:55:55;;;;;;;15.00;3.10;;;;;;;3.94;100.00;99343.82;67546;1282;1018227;-59
2023/02/27 00:58:57;;;;;;;15.50;3.50;;;;;;;3.96;100.00;99343.06;67533;1281;1016259;-59
2023/02/27 01:02:00;;;;;;;19.00;4.90;;;;;;;4.10;100.00;99340.11;67605;1282;1016462;-59
2023/02/27 01:05:02;;;;;;;21.90;5.20;;;;;;;4.12;100.00;99340.08;67612;1282;1016471;-59
2023/02/27 01:08:05;;;;;;;18.10;4.40;;;;;;;4.16;100.00;99342.21;67576;1282;1016418;-59
2023/02/27 01:11:07;;;;;;;20.00;4.80;;;;;;;4.20;100.00;99344.55;67548;1282;1016495;-59
2023/02/27 01:14:09;;;;;;;18.90;4.00;;;;;;;4.19;100.00;99344.04;67559;1282;1017086;-59
2023/02/27 01:17:12;;;;;;;19.80;4.70;;;;;;;4.07;100.00;99347.27;67618;1282;1018863;-60
2023/02/27 01:20:14;;;;;;;20.00;4.70;;;;;;;3.99;100.00;99350.62;67616;1282;1016899;-60
2023/02/27 01:23:17;;;;;;;20.40;4.40;;;;;;;3.92;100.00;99345.77;67605;1282;1016035;-60
2023/02/27 01:26:19;;;;;;;17.50;4.10;;;;;;;3.96;100.00;99352.08;67535;1281;1016499;-60
2023/02/27 01:29:22;;;;;;;19.00;4.00;;;;;;;4.07;100.00;99349.02;67544;1282;1016489;-59
2023/02/27 01:32:24;;;;;;;18.20;4.20;;;;;;;4.04;100.00;99356.02;67554;1282;1016479;-60
2023/02/27 01:35:27;;;;;;;18.00;3.90;;;;;;;3.88;100.00;99360.41;67578;1282;1016287;-60
2023/02/27 01:38:29;;;;;;;18.10;4.10;;;;;;;3.86;100.00;99359.94;67556;1282;1016308;-60
2023/02/27 01:41:32;;;;;;;20.50;4.50;;;;;;;3.86;100.00;99361.67;67552;1282;1016227;-59
2023/02/27 01:44:34;;;;;;;22.00;4.70;;;;;;;3.83;100.00;99366.94;67564;1282;1016423;-59
2023/02/27 01:47:36;;;;;;;20.00;4.00;;;;;;;3.93;100.00;99368.94;67575;1282;1016159;-59
2023/02/27 01:50:39;;;;;;;17.90;3.90;;;;;;;4.00;100.00;99368.08;67596;1281;1016289;-59
2023/02/27 01:53:41;;;;;;;15.60;3.50;;;;;;;4.05;100.00;99368.13;67539;1282;1016254;-59
2023/02/27 01:56:44;;;;;;;18.80;4.30;;;;;;;4.02;100.00;99371.65;67568;1282;1016392;-59
2023/02/27 01:59:46;;;;;;;19.40;4.60;;;;;;;4.11;100.00;99372.11;67591;1282;1016444;-59
2023/02/27 02:02:49;;;;;;;19.80;4.60;;;;;;;4.18;100.00;99372.81;67605;1282;1016132;-59
2023/02/27 02:05:51;;;;;;;19.10;4.40;;;;;;;4.02;100.00;99370.61;67552;1282;1016486;-59
2023/02/27 02:08:54;;;;;;;18.60;4.20;;;;;;;3.97;100.00;99375.77;67536;1282;1016431;-59
2023/02/27 02:11:56;;;;;;;18.80;4.10;;;;;;;3.93;100.00;99374.48;67537;1282;1016493;-59
2023/02/27 02:14:58;;;;;;;20.50;4.50;;;;;;;4.01;100.00;99378.61;67561;1282;1019385;-59
2023/02/27 02:18:01;;;;;;;23.10;5.30;;;;;;;4.04;100.00;99386.48;67563;1282;1017027;-59
2023/02/27 02:21:03;;;;;;;20.00;4.40;;;;;;;3.98;100.00;99391.14;67597;1282;1016891;-59
2023/02/27 02:24:06;;;;;;;20.30;4.20;;;;;;;3.91;100.00;99395.11;67533;1282;1016228;-60
2023/02/27 02:27:10;;;;;;;20.00;4.70;;;;;;;3.95;100.00;99401.59;67567;1282;1016477;-59
2023/02/27 02:30:12;;;;;;;17.90;4.20;;;;;;;4.05;100.00;99406.02;67528;1282;1016459;-59
2023/02/27 02:33:15;;;;;;;19.70;4.20;;;;;;;4.04;100.00;99405.52;67584;1282;1016467;-59
2023/02/27 02:36:17;;;;;;;18.70;4.10;;;;;;;4.08;100.00;99409.23;67606;1282;1016320;-59
2023/02/27 02:39:20;;;;;;;21.20;4.40;;;;;;;4.20;100.00;99411.20;67585;1282;1016201;-59
2023/02/27 02:42:22;;;;;;;18.50;3.90;;;;;;;4.13;100.00;99413.43;67555;1282;1016362;-59
2023/02/27 02:45:24;;;;;;;18.70;4.30;;;;;;;4.08;100.00;99420.48;67524;1282;1016483;-59
2023/02/27 02:48:27;;;;;;;21.20;4.60;;;;;;;4.20;100.00;99422.42;67522;1281;1018013;-59
2023/02/27 02:51:29;;;;;;;22.70;5.00;;;;;;;4.32;100.00;99423.00;67543;1282;1018075;-59
2023/02/27 02:54:31;;;;;;;20.40;4.30;;;;;;;4.40;100.00;99425.21;67570;1282;1016466;-59
2023/02/27 02:57:34;;;;;;;18.50;4.20;;;;;;;4.41;100.00;99428.48;67604;1282;1016443;-59
2023/02/27 03:00:36;;;;;;;20.50;4.40;;;;;;;4.42;100.00;99429.31;67534;1282;1018896;-59
2023/02/27 03:03:39;;;;;;;;;;;;;;;4.49;100.00;99433.64;67524;1282;1016014;-59
2023/02/27 03:06:41;;;;;;;18.60;4.00;;;;;;;4.42;100.00;99436.42;67590;1282;1016402;-59
2023/02/27 03:09:44;;;;;;;19.10;4.00;;;;;;;4.31;100.00;99433.23;67582;1282;1016236;-60
2023/02/27 03:12:46;;;;;;;20.30;4.30;;;;;;;4.36;100.00;99436.39;67552;1282;1016450;-60
2023/02/27 03:15:49;;;;;;;18.20;4.10;;;;;;;4.45;100.00;99438.27;67589;1282;1016430;-59
2023/02/27 03:18:52;;;;;;;18.80;4.50;;;;;;;4.46;100.00;99438.23;67599;1282;1018643;-60
2023/02/27 03:21:54;;;;;;;22.50;4.40;;;;;;;4.49;100.00;99438.66;67586;1282;1016257;-59
2023/02/27 03:24:56;;;;;;;17.50;4.10;;;;;;;4.66;100.00;99439.77;67541;1282;1018561;-59
2023/02/27 03:27:59;;;;;;;19.10;3.90;;;;;;;4.65;100.00;99440.14;67534;1282;1016446;-60
2023/02/27 03:31:04;;;;;;;17.60;3.60;;;;;;;4.62;100.00;99437.78;67586;1282;1016473;-59
2023/02/27 03:34:07;;;;;;;17.30;3.80;;;;;;;4.58;100.00;99443.26;67538;1282;1016511;-60
2023/02/27 03:37:09;;;;;;;21.50;4.50;;;;;;;4.50;100.00;99446.25;67540;1282;1016291;-60
2023/02/27 03:40:11;;;;;;;19.60;4.20;;;;;;;4.34;100.00;99449.95;67592;1282;1016510;-60
2023/02/27 03:43:14;;;;;;;22.80;4.00;;;;;;;4.23;100.00;99452.81;67586;1282;1016451;-60
2023/02/27 03:46:18;;;;;;;17.40;4.00;;;;;;;4.17;100.00;99453.84;67595;1282;1016201;-60
2023/02/27 03:49:21;;;;;;;19.00;4.10;;;;;;;4.15;100.00;99454.08;67541;1282;1017092;-59
2023/02/27 03:52:23;;;;;;;15.30;3.80;;;;;;;4.00;100.00;99457.04;67540;1282;1016386;-59
2023/02/27 03:55:26;;;;;;;19.70;4.10;;;;;;;4.07;100.00;99457.89;67608;1282;1016261;-59
2023/02/27 03:58:28;;;;;;;17.90;3.60;;;;;;;4.15;100.00;99458.91;67589;1282;1016512;-59
2023/02/27 04:01:30;;;;;;;20.20;4.20;;;;;;;4.29;100.00;99458.20;67557;1282;1016044;-60
2023/02/27 04:04:34;;;;;;;19.50;4.40;;;;;;;4.28;100.00;99459.28;67554;1282;1016357;-60
2023/02/27 04:07:36;;;;;;;19.60;4.00;;;;;;;4.22;100.00;99463.41;67566;1282;1016193;-59
2023/02/27 04:10:39;;;;;;;24.50;4.50;;;;;;;4.13;100.00;99461.38;67561;1282;1016690;-60
2023/02/27 04:13:41;;;;;;;17.40;4.10;;;;;;;4.13;100.00;99465.20;67536;1282;1016489;-59
2023/02/27 04:16:44;;;;;;;16.20;4.00;;;;;;;4.03;100.00;99468.73;67610;1281;1016412;-60
2023/02/27 04:19:47;;;;;;;19.10;4.40;;;;;;;4.06;100.00;99464.31;67551;1282;1016445;-60
2023/02/27 04:22:49;;;;;;;15.90;3.40;;;;;;;3.93;100.00;99464.80;67579;1282;1016510;-60
2023/02/27 04:25:52;;;;;;;20.30;3.90;;;;;;;3.84;100.00;99463.79;67599;1282;1018898;-59
2023/02/27 04:28:54;;;;;;;19.80;4.30;;;;;;;3.79;100.00;99465.81;67599;1282;1016090;-60
2023/02/27 04:31:57;;;;;;;17.20;3.80;;;;;;;3.83;100.00;99471.44;67541;1281;1019623;-59
2023/02/27 04:34:59;;;;;;;19.20;4.10;;;;;;;3.77;100.00;99468.80;67540;1282;1016265;-59
2023/02/27 04:38:01;;;;;;;18.30;4.00;;;;;;;3.80;100.00;99476.69;67568;1282;1016485;-60
2023/02/27 04:41:04;;;;;;;15.80;3.80;;;;;;;3.93;100.00;99473.11;67596;1282;1016048;-59
2023/02/27 04:44:06;;;;;;;18.70;4.00;;;;;;;4.06;100.00;99478.52;67591;1282;1016211;-59
2023/02/27 04:47:11;;;;;;;16.60;3.60;;;;;;;4.08;100.00;99479.51;67587;1282;1016445;-61
2023/02/27 04:50:14;;;;;;;14.70;3.30;;;;;;;4.17;100.00;99483.61;67597;1282;1017989;-59
2023/02/27 04:53:16;;;;;;;18.60;3.60;;;;;;;4.20;100.00;99482.68;67621;1281;1016239;-61
2023/02/27 04:56:19;;;;;;;16.60;3.80;;;;;;;4.23;100.00;99491.80;67587;1282;1016349;-60
2023/02/27 04:59:21;;;;;;;17.20;3.70;;;;;;;4.29;100.00;99496.48;67560;1282;1016426;-60
2023/02/27 05:02:24;;;;;;;16.20;4.00;;;;;;;4.37;100.00;99502.02;67552;1282;1016424;-61
2023/02/27 05:05:26;;;;;;;18.10;4.60;;;;;;;4.36;100.00;99507.21;67588;1281;1016511;-60
2023/02/27 05:08:29;;;;;;;18.60;3.80;;;;;;;4.38;100.00;99509.27;67583;1282;1016498;-63
2023/02/27 05:11:31;;;;;;;18.90;4.00;;;;;;;4.24;100.00;99507.00;67536;1282;1016524;-60
2023/02/27 05:14:34;;;;;;;15.90;3.80;;;;;;;4.29;100.00;99509.29;67571;1282;1016279;-60
2023/02/27 05:17:36;;;;;;;17.80;3.60;;;;;;;4.26;100.00;99506.26;67583;1282;1016325;-59
2023/02/27 05:20:38;;;;;;;17.40;4.00;;;;;;;4.15;100.00;99508.77;67635;1282;1016468;-59
2023/02/27 05:23:41;;;;;;;19.90;3.70;;;;;;;4.09;100.00;99510.27;67560;1282;1016246;-60
2023/02/27 05:26:43;;;;;;;17.60;4.00;;;;;;;4.10;100.00;99512.85;67518;1282;1016460;-60
2023/02/27 05:29:46;;;;;;;17.00;3.80;;;;;;;4.08;100.00;99517.75;67572;1282;1017242;-61
2023/02/27 05:32:49;;;;;;;18.20;3.80;;;;;;;4.15;100.00;99527.12;67411;1282;1202440;-60
2023/02/27 05:35:51;;;;;;;17.50;4.20;;;;;;;4.26;100.00;99529.80;67560;1282;1016555;-59
2023/02/27 05:38:54;;;;;;;;;;;;;;;4.35;100.00;99529.06;67555;1282;1016357;-59
2023/02/27 05:41:57;;;;;;;17.20;3.90;;;;;;;4.41;100.00;99528.75;67612;1282;1016913;-59
2023/02/27 05:44:59;;;;;;;18.70;4.40;;;;;;;4.44;100.00;99531.98;67583;1282;1016452;-59
2023/02/27 05:48:01;;;;;;;19.50;4.10;;;;;;;4.40;100.00;99538.29;67555;1282;1017477;-59
2023/02/27 05:51:04;;;;;;;17.80;3.60;;;;;;;4.54;100.00;99542.99;67535;1282;1016387;-59
2023/02/27 05:54:06;;;;;;;20.10;4.00;;;;;;;4.55;100.00;99545.56;67580;1282;1016347;-59
2023/02/27 05:57:09;;;;;;;19.10;3.90;;;;;;;4.63;100.00;99548.83;67599;1282;1018911;-60
2023/02/27 06:00:11;;;;;;;17.80;3.80;;;;;;;4.59;100.00;99547.55;67564;1282;1015948;-60
2023/02/27 06:03:13;;;;;;;18.50;3.80;;;;;;;4.59;100.00;99553.42;67551;1282;1016255;-59
2023/02/27 06:06:16;;;;;;;20.90;4.20;;;;;;;4.46;100.00;99555.13;67558;1282;1016433;-59
2023/02/27 06:09:19;;;;;;;18.20;4.00;;;;;;;4.57;100.00;99559.35;67597;1282;1016444;-61
2023/02/27 06:12:22;;;;;;;17.00;4.10;;;;;;;4.62;100.00;99564.06;67518;1282;1016499;-61
2023/02/27 06:15:24;;;;;;;21.00;4.80;;;;;;;4.70;100.00;99567.53;67564;1282;1015851;-60
2023/02/27 06:18:28;;;;;;;18.90;4.10;;;;;;;4.53;100.00;99570.55;67593;1282;1016470;-61
2023/02/27 06:21:30;;;;;;;17.20;3.90;;;;;;;4.47;100.00;99569.45;67566;1282;1016320;-59
2023/02/27 06:24:33;;;;;;;15.90;3.90;;;;;;;4.58;100.00;99569.91;67602;1282;1019318;-59
2023/02/27 06:27:35;;;;;;;20.40;4.40;;;;;;;4.73;100.00;99569.52;67562;1282;1015844;-59
2023/02/27 06:30:38;;;;;;;20.50;4.70;;;;;;;4.93;100.00;99570.25;67539;1282;1016198;-59
2023/02/27 06:33:40;;;;;;;18.60;4.60;;;;;;;5.09;100.00;99569.14;67589;1282;1016550;-59
2023/02/27 06:36:43;;;;;;;18.00;4.40;;;;;;;5.18;100.00;99568.02;67579;1282;1016434;-59
2023/02/27 06:39:46;;;;;;;19.10;4.60;;;;;;;5.31;100.00;99569.59;67574;1282;1016130;-59
2023/02/27 06:42:49;;;;;;;17.00;4.20;;;;;;;5.43;100.00;99575.83;67571;1282;1016471;-59
2023/02/27 06:45:51;;;;;;;19.20;4.50;;;;;;;5.23;100.00;99576.38;67591;1282;1016417;-59
2023/02/27 06:48:54;;;;;;;20.40;4.80;;;;;;;5.15;100.00;99580.42;67560;1282;1016219;-59
2023/02/27 06:51:56;;;;;;;23.80;5.20;;;;;;;4.91;100.00;99579.98;67557;1282;1016848;-59
2023/02/27 06:54:58;;;;;;;20.10;4.60;;;;;;;5.09;100.00;99581.94;67579;1282;1016245;-59
2023/02/27 06:58:01;;;;;;;21.50;5.40;;;;;;;5.01;100.00;99587.19;67591;1281;1016320;-59
2023/02/27 07:01:03;;;;;;;21.20;5.00;;;;;;;4.88;100.00;99589.09;67584;1282;1016292;-59
2023/02/27 07:04:07;;;;;;;19.30;4.70;;;;;;;4.73;100.00;99591.54;67587;1281;1016569;-59
2023/02/27 07:07:09;;;;;;;18.20;5.00;;;;;;;4.70;100.00;99594.21;67579;1281;1016520;-60
2023/02/27 07:10:12;;;;;;;24.00;6.10;;;;;;;4.46;100.00;99589.05;67556;1282;1016507;-59
2023/02/27 07:13:14;;;;;;;24.50;6.20;;;;;;;4.65;100.00;99591.91;67554;1282;1016392;-59
2023/02/27 07:16:16;;;;;;;22.10;5.70;;;;;;;4.92;100.00;99592.79;67563;1282;1016407;-59
2023/02/27 07:19:19;;;;;;;24.40;6.00;;;;;;;4.88;100.00;99597.05;67584;1282;1016619;-59
2023/02/27 07:22:22;;;;;;;;;;;;;;;4.93;100.00;99600.23;67524;1282;1016402;-59
2023/02/27 07:25:24;;;;;;;23.20;6.10;;;;;;;4.93;100.00;99607.50;67550;1282;1016446;-59
2023/02/27 07:28:26;;;;;;;24.40;6.30;;;;;;;5.01;100.00;99602.27;67581;1282;1016891;-59
2023/02/27 07:31:29;;;;;;;23.60;5.70;;;;;;;5.27;100.00;99606.80;67603;1282;1015948;-59
2023/02/27 07:34:31;;;;;;;21.00;6.20;;;;;;;5.46;100.00;99607.31;67567;1282;1018214;-59
2023/02/27 07:37:34;;;;;;;25.70;6.00;;;;;;;5.69;100.00;99612.59;67549;1282;1015854;-59
2023/02/27 07:40:36;;;;;;;23.80;5.30;;;;;;;5.50;100.00;99614.48;67556;1281;1016421;-60
2023/02/27 07:43:39;;;;;;;20.70;5.40;;;;;;;5.49;100.00;99611.91;67598;1282;1016453;-59
2023/02/27 07:46:43;;;;;;;20.40;4.90;;;;;;;5.48;100.00;99614.39;67572;1282;1016234;-60
2023/02/27 07:49:46;;;;;;;23.20;5.10;;;;;;;5.61;100.00;99616.11;67584;1282;1017122;-59
2023/02/27 07:52:48;;;;;;;;;;;;;;;5.48;100.00;99614.55;67553;1281;1016478;-59
2023/02/27 07:55:50;;;;;;;22.80;5.50;;;;;;;5.36;100.00;99612.44;67495;1282;1018557;-59
2023/02/27 07:58:53;;;;;;;19.20;4.70;;;;;;;5.42;100.00;99617.65;67588;1282;1016550;-60
2023/02/27 08:01:55;;;;;;;18.30;4.60;;;;;;;5.37;100.00;99620.23;67606;1282;1016460;-60
2023/02/27 08:04:58;;;;;;;17.30;4.50;;;;;;;5.36;100.00;99626.86;67586;1282;1016490;-59
2023/02/27 08:08:00;;;;;;;22.20;4.60;;;;;;;5.49;100.00;99620.94;67553;1281;1015680;-59
2023/02/27 08:11:02;;;;;;;17.40;4.30;;;;;;;5.57;100.00;99623.67;67549;1281;1020939;-59
2023/02/27 08:14:05;;;;;;;20.50;5.00;;;;;;;5.52;100.00;99628.15;67595;1282;1016342;-59
2023/02/27 08:17:08;;;;;;;19.00;5.00;;;;;;;5.47;100.00;99628.27;67539;1282;1016383;-59
2023/02/27 08:20:12;;;;;;;21.50;4.60;;;;;;;5.59;100.00;99633.67;67541;1281;1016282;-59
2023/02/27 08:23:14;;;;;;;19.30;4.50;;;;;;;5.74;100.00;99637.24;67554;1281;1016468;-59
2023/02/27 08:26:17;;;;;;;20.40;4.40;;;;;;;5.68;100.00;99642.11;67568;1282;1016564;-59
2023/02/27 08:29:19;;;;;;;17.00;4.10;;;;;;;5.86;99.93;99641.08;67560;1282;1016201;-59
2023/02/27 08:32:22;;;;;;;15.50;3.60;;;;;;;5.76;99.08;99653.19;67548;1282;1016099;-59
2023/02/27 08:35:24;;;;;;;16.20;3.50;;;;;;;5.78;97.49;99650.70;67570;1282;1016500;-60
2023/02/27 08:38:27;;;;;;;17.20;3.90;;;;;;;5.75;91.53;99653.88;67525;1282;1016472;-60
2023/02/27 08:41:29;;;;;;;18.10;3.70;;;;;;;5.72;93.49;99655.18;67602;1282;1017104;-59
2023/02/27 08:44:31;;;;;;;15.30;3.20;;;;;;;6.07;92.09;99650.22;67579;1282;1016347;-59
2023/02/27 08:47:34;;;;;;;14.30;3.20;;;;;;;6.39;89.30;99656.24;67560;1282;1016208;-59
2023/02/27 08:50:36;;;;;;;9.90;2.70;;;;;;;6.75;90.35;99653.54;67527;1282;1016443;-60
2023/02/27 08:53:39;;;;;;;9.70;2.20;;;;;;;6.91;82.74;99664.15;67517;1282;1016282;-59
2023/02/27 08:56:41;;;;;;;10.90;2.80;;;;;;;6.91;81.96;99664.87;67546;1282;1016474;-59
2023/02/27 08:59:43;;;;;;;7.60;2.10;;;;;;;6.65;83.02;99667.78;67603;1282;1018821;-60
2023/02/27 09:02:46;;;;;;;6.40;1.80;;;;;;;6.42;78.33;99675.08;67594;1282;1016442;-59
2023/02/27 09:05:48;;;;;;;;;;;;;;;6.09;74.46;99682.32;67540;1282;1016354;-59
2023/02/27 09:08:53;;;;;;;8.20;2.00;;;;;;;6.22;76.32;99686.45;67519;1281;1016440;-59
2023/02/27 09:11:56;;;;;;;6.60;1.70;;;;;;;6.45;77.04;99692.90;67580;1281;1016221;-59
2023/02/27 09:14:58;;;;;;;6.50;1.80;;;;;;;6.63;73.05;99696.52;67535;1282;1016247;-59
2023/02/27 09:18:02;;;;;;;9.00;1.90;;;;;;;6.81;71.69;99697.52;67528;1282;1016622;-60
2023/02/27 09:21:04;;;;;;;6.80;1.80;;;;;;;6.77;62.44;99706.50;67590;1282;1017019;-60
2023/02/27 09:24:06;;;;;;;5.50;2.00;;;;;;;6.39;61.84;99716.85;67569;1281;1016514;-60
2023/02/27 09:27:09;;;;;;;6.40;2.00;;;;;;;6.05;64.81;99708.96;67547;1281;1016401;-59
2023/02/27 09:30:11;;;;;;;8.50;1.90;;;;;;;5.94;64.28;99718.47;67552;1281;1016189;-59
2023/02/27 09:33:14;;;;;;;6.80;1.40;;;;;;;5.81;63.34;99721.93;67551;1282;1016473;-59
2023/02/27 09:36:17;;;;;;;;;;;;;;;5.99;62.20;99720.45;67554;1282;1015848;-59
2023/02/27 09:39:20;;;;;;;;;;;;;;;5.95;60.82;99728.69;67597;1281;1019605;-59
2023/02/27 09:42:22;;;;;;;7.40;1.60;;;;;;;5.95;60.65;99727.13;67581;1281;1016295;-59
2023/02/27 09:45:25;;;;;;;;;;;;;;;5.65;62.86;99734.33;67550;1282;1016522;-59
2023/02/27 09:48:28;;;;;;;3.00;1.20;;;;;;;5.60;62.61;99738.80;67574;1281;1016680;-59
2023/02/27 09:51:31;;;;;;;6.50;1.20;;;;;;;5.67;62.57;99740.36;67535;1281;1018692;-59
2023/02/27 09:54:33;;;;;;;9.70;2.00;;;;;;;5.55;60.63;99746.73;67561;1281;1016409;-59
2023/02/27 09:57:36;;;;;;;7.30;1.50;;;;;;;5.57;61.01;99747.22;67560;1282;1016448;-60
2023/02/27 10:00:38;;;;;;;6.20;1.70;;;;;;;5.69;62.24;99743.79;67555;1282;1016487;-60
2023/02/27 10:03:42;;;;;;;5.90;1.40;;;;;;;5.61;62.51;99741.39;67535;1281;1016385;-59
2023/02/27 10:06:44;;;;;;;6.80;1.50;;;;;;;5.72;61.91;99742.48;67548;1282;1016151;-59
2023/02/27 10:09:47;;;;;;;8.30;1.40;;;;;;;5.58;60.55;99743.71;67535;1282;1018889;-59
2023/02/27 10:12:49;;;;;;;8.10;1.80;;;;;;;5.81;61.28;99740.85;67493;1282;1016072;-59
2023/02/27 10:15:51;;;;;;;5.90;1.70;;;;;;;6.53;60.36;99739.92;67515;1264;1016465;-59
2023/02/27 10:18:54;;;;;;;4.90;1.40;;;;;;;6.76;58.68;99739.55;67530;1282;1016183;-59
2023/02/27 10:21:56;;;;;;;;;;;;;;;6.56;58.57;99737.90;67561;1282;1015956;-60
2023/02/27 10:24:59;;;;;;;5.40;1.40;;;;;;;6.40;59.71;99736.64;67541;1281;1016366;-60
2023/02/27 10:28:04;;;;;;;6.50;1.80;;;;;;;6.41;58.65;99740.06;67572;1282;1016427;-59
2023/02/27 10:31:06;;;;;;;5.50;1.70;;;;;;;6.24;57.14;99746.30;67581;1281;1016545;-60
2023/02/27 10:34:09;;;;;;;10.60;2.10;;;;;;;6.08;58.25;99742.58;67534;1281;1016397;-59
2023/02/27 10:37:11;;;;;;;9.10;1.90;;;;;;;5.98;57.38;99738.33;67545;1281;1016361;-60
2023/02/27 10:40:14;;;;;;;10.10;2.30;;;;;;;6.06;57.63;99738.29;67590;1281;1016839;-60
2023/02/27 10:43:17;;;;;;;7.60;2.00;;;;;;;6.41;56.01;99737.31;67566;1282;1016451;-60
2023/02/27 10:46:20;;;;;;;8.80;1.90;;;;;;;6.52;56.93;99736.80;67588;1282;1017056;-60
2023/02/27 10:49:22;;;;;;;9.00;2.10;;;;;;;6.79;55.27;99735.65;67581;1282;1016473;-60
2023/02/27 10:52:25;;;;;;;8.20;2.30;;;;;;;6.66;55.93;99735.36;67546;1281;1016349;-60
2023/02/27 10:55:28;;;;;;;10.00;2.30;;;;;;;6.68;54.78;99734.43;67583;1282;1016488;-59
2023/02/27 10:58:32;;;;;;;8.80;2.00;;;;;;;6.84;55.61;99735.15;67563;1282;1016483;-60
2023/02/27 11:01:35;;;;;;;9.20;2.20;;;;;;;6.69;53.76;99734.73;67590;1282;1018106;-60
2023/02/27 11:04:37;;;;;;;8.00;2.10;;;;;;;6.49;53.06;99729.75;67553;1282;1016305;-60
2023/02/27 11:07:39;;;;;;;7.80;2.10;;;;;;;6.62;53.77;99729.74;67540;1281;1016199;-59
2023/02/27 11:10:42;;;;;;;8.30;2.30;;;;;;;6.66;53.99;99727.70;67544;1281;1016228;-59
2023/02/27 11:13:44;;;;;;;9.50;2.40;;;;;;;6.82;53.26;99735.01;67536;1281;1016097;-60
2023/02/27 11:16:47;;;;;;;8.40;2.20;;;;;;;6.84;52.15;99735.99;67617;1281;1016286;-59
2023/02/27 11:19:49;;;;;;;9.50;2.30;;;;;;;6.94;53.89;99729.96;67536;1281;1016283;-59
2023/02/27 11:22:52;;;;;;;6.70;2.10;;;;;;;7.02;52.79;99732.15;67552;1281;1017099;-60
2023/02/27 11:25:54;;;;;;;9.50;2.50;;;;;;;6.87;52.97;99732.08;67577;1281;1016491;-59
2023/02/27 11:28:57;;;;;;;8.50;2.30;;;;;;;6.88;53.12;99734.34;67603;1281;1016395;-60
2023/02/27 11:31:59;;;;;;;8.70;2.50;;;;;;;6.88;53.65;99727.88;67564;1281;1016491;-59
2023/02/27 11:35:03;;;;;;;9.40;2.30;;;;;;;6.88;51.18;99734.84;67565;1281;1016492;-59
2023/02/27 11:38:05;;;;;;;8.60;2.20;;;;;;;6.80;51.48;99738.05;67577;1281;1016740;-60
2023/02/27 11:41:08;;;;;;;8.90;2.30;;;;;;;6.65;51.71;99734.69;67538;1282;1015899;-59
2023/02/27 11:44:10;;;;;;;11.00;2.80;;;;;;;6.63;53.03;99729.71;67566;1281;1016051;-59
2023/02/27 11:47:13;;;;;;;15.10;2.90;;;;;;;6.72;54.17;99729.26;67600;1282;1015954;-59
2023/02/27 11:50:15;;;;;;;11.20;2.90;;;;;;;6.70;53.77;99730.38;67553;1281;1018499;-59
2023/02/27 11:53:18;;;;;;;12.70;3.30;;;;;;;6.68;53.16;99739.27;67544;1281;1016319;-59
2023/02/27 11:56:20;;;;;;;14.40;3.40;;;;;;;6.57;53.55;99735.80;67560;1282;1015952;-60
2023/02/27 11:59:23;;;;;;;15.90;3.20;;;;;;;6.65;54.47;99738.33;67551;1282;1016317;-59
2023/02/27 12:02:25;;;;;;;14.30;3.50;;;;;;;6.55;53.93;99743.67;67611;1282;1020248;-60
2023/02/27 12:05:28;;;;;;;12.60;3.10;;;;;;;6.56;53.97;99746.24;67560;1281;1016924;-61
2023/02/27 12:08:30;;;;;;;12.80;3.40;;;;;;;6.47;54.85;99748.08;67550;1282;1016301;-60
2023/02/27 12:11:33;;;;;;;;;;;;;;;6.50;54.89;99751.64;67613;1281;1016459;-61
2023/02/27 12:14:35;;;;;;;12.30;3.00;;;;;;;6.62;54.73;99747.13;67601;1282;1016323;-60
2023/02/27 12:17:38;;;;;;;14.30;3.10;;;;;;;6.56;54.89;99748.49;67564;1281;1019301;-60
2023/02/27 12:20:40;;;;;;;12.00;3.20;;;;;;;6.45;55.96;99751.62;67536;1281;1015914;-59
2023/02/27 12:23:43;;;;;;;13.80;3.70;;;;;;;6.38;55.51;99756.50;67550;1282;1016201;-60
2023/02/27 12:26:45;;;;;;;14.90;3.20;;;;;;;6.44;55.73;99749.20;67589;1282;1019616;-60
2023/02/27 12:29:48;;;;;;;14.60;3.40;;;;;;;6.40;56.35;99749.83;67568;1281;1016303;-59
2023/02/27 12:32:50;;;;;;;13.20;3.30;;;;;;;6.45;56.59;99747.09;67534;1282;1016199;-60
2023/02/27 12:35:53;;;;;;;12.90;3.40;;;;;;;6.53;55.98;99743.39;67522;1282;1016477;-60
2023/02/27 12:38:55;;;;;;;14.30;3.40;;;;;;;6.65;56.84;99746.86;67584;1282;1017477;-60
2023/02/27 12:41:58;;;;;;;14.30;3.80;;;;;;;6.50;55.65;99746.61;67576;1282;1016454;-60
2023/02/27 12:45:00;;;;;;;15.90;3.80;;;;;;;6.41;56.21;99748.59;67530;1281;1016549;-62
2023/02/27 12:48:03;;;;;;;13.70;3.60;;;;;;;6.45;56.84;99754.56;67533;1282;1016402;-60
2023/02/27 12:51:05;;;;;;;15.90;3.80;;;;;;;6.31;57.26;99761.05;67558;1281;1016432;-60
2023/02/27 12:54:08;;;;;;;13.90;3.50;;;;;;;6.26;57.30;99757.52;67582;1282;1016103;-59
2023/02/27 12:57:10;;;;;;;;;;;;;;;6.17;57.41;99763.87;67560;1281;1016359;-59
2023/02/27 13:00:13;;;;;;;12.40;3.60;;;;;;;6.12;57.01;99766.59;67541;1282;1016407;-60
2023/02/27 13:03:16;;;;;;;18.10;4.40;;;;;;;6.12;57.65;99767.66;67569;1282;1016418;-59
2023/02/27 13:06:18;;;;;;;13.50;3.70;;;;;;;6.31;58.15;99766.40;67563;1281;1016457;-59
2023/02/27 13:09:21;;;;;;;15.00;3.90;;;;;;;6.32;57.61;99770.08;67559;1282;1017668;-60
2023/02/27 13:12:23;;;;;;;16.10;3.70;;;;;;;6.33;57.13;99769.33;67537;1282;1016451;-59
2023/02/27 13:15:26;;;;;;;12.30;3.60;;;;;;;6.41;56.54;99768.59;67595;1281;1016458;-60
2023/02/27 13:18:28;;;;;;;15.80;4.00;;;;;;;6.43;57.16;99767.99;67599;1281;1018789;-60
2023/02/27 13:21:31;;;;;;;17.40;4.40;;;;;;;6.45;57.33;99767.23;67534;1281;1016094;-59
2023/02/27 13:24:33;;;;;;;17.00;3.90;;;;;;;6.44;57.84;99772.67;67542;1282;1016435;-59
2023/02/27 13:27:35;;;;;;;13.50;3.90;;;;;;;6.37;57.48;99773.04;67573;1282;1016490;-59
2023/02/27 13:30:38;;;;;;;16.80;3.60;;;;;;;6.19;57.30;99774.94;67573;1281;1016289;-60
2023/02/27 13:33:40;;;;;;;13.10;3.50;;;;;;;6.11;56.80;99777.92;67574;1281;1016185;-59
2023/02/27 13:36:42;;;;;;;11.60;3.40;;;;;;;6.13;57.25;99776.32;67524;1281;1016561;-60
2023/02/27 13:39:45;;;;;;;13.10;3.60;;;;;;;6.00;56.94;99776.30;67531;1281;1016288;-60
2023/02/27 13:42:48;;;;;;;17.20;3.60;;;;;;;6.12;57.62;99780.52;67580;1281;1016461;-60
2023/02/27 13:45:50;;;;;;;14.60;3.80;;;;;;;6.30;56.71;99783.83;67568;1281;1016157;-59
2023/02/27 13:48:53;;;;;;;13.80;3.70;;;;;;;6.41;57.38;99780.91;67522;1282;1016390;-61
2023/02/27 13:51:58;;;;;;;;;;;;;;;6.36;57.42;99783.65;67576;1281;1016508;-60
2023/02/27 13:55:01;;;;;;;15.70;4.00;;;;;;;6.29;57.87;99785.42;67526;1282;1016435;-60
2023/02/27 13:58:03;;;;;;;14.40;3.70;;;;;;;6.38;57.57;99783.42;67525;1282;1016493;-59